sensor_id;sensor_type;location;lat;lon;timestamp;pressure;altitude;pressure_sealevel;temperature;humidity
12897;BME280;6516;35.028;32.372;2022-09-29T00:00:53;99900.88;;;21.91;90.83
12897;BME280;6516;35.028;32.372;2022-09-29T00:03:22;99905.47;;;21.89;90.77
12897;BME280;6516;35.028;32.372;2022-09-29T00:05:51;99906.53;;;21.87;91.03
12897;BME280;6516;35.028;32.372;2022-09-29T00:08:21;99906.78;;;21.84;90.60
12897;BME280;6516;35.028;32.372;2022-09-29T00:10:52;99906.78;;;21.84;91.36
12897;BME280;6516;35.028;32.372;2022-09-29T00:13:20;99902.06;;;21.87;91.71
12897;BME280;6516;35.028;32.372;2022-09-29T00:15:55;99910.28;;;21.84;91.57
12897;BME280;6516;35.028;32.372;2022-09-29T00:18:25;99907.84;;;21.81;91.56
12897;BME280;6516;35.028;32.372;2022-09-29T00:20:57;99904.28;;;21.81;91.43
12897;BME280;6516;35.028;32.372;2022-09-29T00:23:26;99899.88;;;21.80;92.13
12897;BME280;6516;35.028;32.372;2022-09-29T00:26:04;99908.91;;;21.79;92.16
12897;BME280;6516;35.028;32.372;2022-09-29T00:28:34;99909.00;;;21.77;92.12
12897;BME280;6516;35.028;32.372;2022-09-29T00:31:04;99902.66;;;21.78;92.59
12897;BME280;6516;35.028;32.372;2022-09-29T00:33:34;99899.13;;;21.78;92.72
12897;BME280;6516;35.028;32.372;2022-09-29T00:36:04;99900.00;;;21.78;92.89
12897;BME280;6516;35.028;32.372;2022-09-29T00:38:33;99897.94;;;21.82;92.76
12897;BME280;6516;35.028;32.372;2022-09-29T00:41:03;99904.19;;;21.82;93.26
12897;BME280;6516;35.028;32.372;2022-09-29T00:43:56;99898.50;;;21.87;93.39
12897;BME280;6516;35.028;32.372;2022-09-29T00:46:34;99891.31;;;21.87;93.60
12897;BME280;6516;35.028;32.372;2022-09-29T00:49:09;99893.03;;;21.88;93.25
12897;BME280;6516;35.028;32.372;2022-09-29T00:51:42;99890.34;;;21.88;93.24
12897;BME280;6516;35.028;32.372;2022-09-29T00:54:15;99875.13;;;21.89;93.98
12897;BME280;6516;35.028;32.372;2022-09-29T00:56:46;99867.31;;;21.86;93.65
12897;BME280;6516;35.028;32.372;2022-09-29T00:59:19;99870.31;;;21.81;93.04
12897;BME280;6516;35.028;32.372;2022-09-29T01:01:50;99869.75;;;21.76;92.53
12897;BME280;6516;35.028;32.372;2022-09-29T01:04:19;99867.09;;;21.76;92.98
12897;BME280;6516;35.028;32.372;2022-09-29T01:06:49;99869.88;;;21.75;93.22
12897;BME280;6516;35.028;32.372;2022-09-29T01:09:21;99868.56;;;21.80;93.31
12897;BME280;6516;35.028;32.372;2022-09-29T01:11:54;99870.50;;;21.78;93.03
12897;BME280;6516;35.028;32.372;2022-09-29T01:14:23;99854.31;;;21.80;93.79
12897;BME280;6516;35.028;32.372;2022-09-29T01:16:52;99856.22;;;21.78;93.67
12897;BME280;6516;35.028;32.372;2022-09-29T01:19:25;99856.47;;;21.75;93.30
12897;BME280;6516;35.028;32.372;2022-09-29T01:22:03;99851.31;;;21.72;93.67
12897;BME280;6516;35.028;32.372;2022-09-29T01:24:57;99847.56;;;21.74;93.92
12897;BME280;6516;35.028;32.372;2022-09-29T01:31:08;99854.31;;;21.80;93.32
12897;BME280;6516;35.028;32.372;2022-09-29T01:33:43;99856.22;;;21.78;93.06
12897;BME280;6516;35.028;32.372;2022-09-29T01:36:23;99868.56;;;21.80;93.68
12897;BME280;6516;35.028;32.372;2022-09-29T01:39:05;99864.94;;;21.81;93.48
12897;BME280;6516;35.028;32.372;2022-09-29T01:41:41;99866.13;;;21.77;92.97
12897;BME280;6516;35.028;32.372;2022-09-29T01:44:20;99874.25;;;21.76;93.19
12897;BME280;6516;35.028;32.372;2022-09-29T01:46:55;99880.50;;;21.76;93.72
12897;BME280;6516;35.028;32.372;2022-09-29T01:49:29;99879.91;;;21.71;93.16
12897;BME280;6516;35.028;32.372;2022-09-29T01:52:01;99875.50;;;21.70;93.81
12897;BME280;6516;35.028;32.372;2022-09-29T01:54:33;99872.84;;;21.70;93.53
12897;BME280;6516;35.028;32.372;2022-09-29T01:57:07;99877.16;;;21.59;92.13
12897;BME280;6516;35.028;32.372;2022-09-29T01:59:42;99875.75;;;21.53;91.97
12897;BME280;6516;35.028;32.372;2022-09-29T02:02:16;99871.00;;;21.44;92.40
12897;BME280;6516;35.028;32.372;2022-09-29T02:04:51;99869.50;;;21.40;92.89
12897;BME280;6516;35.028;32.372;2022-09-29T02:07:23;99868.09;;;21.35;93.55
12897;BME280;6516;35.028;32.372;2022-09-29T02:10:06;99863.03;;;21.30;93.58
12897;BME280;6516;35.028;32.372;2022-09-29T02:12:39;99864.75;;;21.31;93.74
12897;BME280;6516;35.028;32.372;2022-09-29T02:15:13;99860.06;;;21.35;93.99
12897;BME280;6516;35.028;32.372;2022-09-29T02:17:47;99862.72;;;21.35;94.15
12897;BME280;6516;35.028;32.372;2022-09-29T02:20:18;99856.59;;;21.33;94.23
12897;BME280;6516;35.028;32.372;2022-09-29T02:22:47;99860.91;;;21.35;93.98
12897;BME280;6516;35.028;32.372;2022-09-29T02:25:16;99853.00;;;21.34;93.81
12897;BME280;6516;35.028;32.372;2022-09-29T02:27:46;99851.06;;;21.36;94.12
12897;BME280;6516;35.028;32.372;2022-09-29T02:30:15;99853.72;;;21.36;93.98
12897;BME280;6516;35.028;32.372;2022-09-29T02:32:46;99858.34;;;21.34;93.85
12897;BME280;6516;35.028;32.372;2022-09-29T02:35:15;99864.44;;;21.36;93.23
12897;BME280;6516;35.028;32.372;2022-09-29T02:37:49;99864.88;;;21.30;92.95
12897;BME280;6516;35.028;32.372;2022-09-29T02:40:31;99859.41;;;21.31;93.67
12897;BME280;6516;35.028;32.372;2022-09-29T02:43:14;99858.44;;;21.32;93.64
12897;BME280;6516;35.028;32.372;2022-09-29T02:46:02;99863.75;;;21.20;92.82
12897;BME280;6516;35.028;32.372;2022-09-29T02:48:58;99862.97;;;21.18;92.96
12897;BME280;6516;35.028;32.372;2022-09-29T02:51:36;99869.59;;;21.12;93.10
12897;BME280;6516;35.028;32.372;2022-09-29T02:54:20;99857.38;;;21.08;93.71
12897;BME280;6516;35.028;32.372;2022-09-29T02:57:03;99857.56;;;21.05;93.78
12897;BME280;6516;35.028;32.372;2022-09-29T02:59:44;99860.44;;;21.02;93.41
12897;BME280;6516;35.028;32.372;2022-09-29T03:02:23;99864.72;;;21.05;93.86
12897;BME280;6516;35.028;32.372;2022-09-29T03:04:53;99873.81;;;21.02;94.21
12897;BME280;6516;35.028;32.372;2022-09-29T03:07:21;99868.28;;;21.05;94.03
12897;BME280;6516;35.028;32.372;2022-09-29T03:09:48;99865.41;;;21.08;94.65
12897;BME280;6516;35.028;32.372;2022-09-29T03:12:16;99862.75;;;21.08;93.86
12897;BME280;6516;35.028;32.372;2022-09-29T03:14:45;99861.22;;;21.04;94.04
12897;BME280;6516;35.028;32.372;2022-09-29T03:17:13;99853.06;;;21.06;94.35
12897;BME280;6516;35.028;32.372;2022-09-29T03:19:41;99853.19;;;21.04;94.61
12897;BME280;6516;35.028;32.372;2022-09-29T03:22:10;99848.75;;;21.03;94.10
12897;BME280;6516;35.028;32.372;2022-09-29T03:24:38;99850.59;;;21.03;94.06
12897;BME280;6516;35.028;32.372;2022-09-29T03:27:06;99856.78;;;21.03;94.72
12897;BME280;6516;35.028;32.372;2022-09-29T03:29:36;99854.13;;;21.03;94.70
12897;BME280;6516;35.028;32.372;2022-09-29T03:32:04;99853.19;;;21.04;94.68
12897;BME280;6516;35.028;32.372;2022-09-29T03:34:32;99854.34;;;21.00;93.99
12897;BME280;6516;35.028;32.372;2022-09-29T03:37:00;99860.75;;;20.98;94.23
12897;BME280;6516;35.028;32.372;2022-09-29T03:39:29;99859.69;;;21.00;95.25
12897;BME280;6516;35.028;32.372;2022-09-29T03:41:57;99857.47;;;21.07;96.15
12897;BME280;6516;35.028;32.372;2022-09-29T03:44:25;99863.66;;;21.07;95.31
12897;BME280;6516;35.028;32.372;2022-09-29T03:46:52;99863.56;;;21.09;95.08
12897;BME280;6516;35.028;32.372;2022-09-29T03:49:20;99866.25;;;21.09;95.11
12897;BME280;6516;35.028;32.372;2022-09-29T03:51:48;99862.59;;;21.10;94.70
12897;BME280;6516;35.028;32.372;2022-09-29T03:54:17;99871.09;;;21.16;94.82
12897;BME280;6516;35.028;32.372;2022-09-29T03:56:46;99867.50;;;21.17;94.96
12897;BME280;6516;35.028;32.372;2022-09-29T03:59:14;99873.03;;;21.14;93.91
12897;BME280;6516;35.028;32.372;2022-09-29T04:01:42;99868.53;;;21.15;93.82
12897;BME280;6516;35.028;32.372;2022-09-29T04:04:09;99869.91;;;21.08;93.51
12897;BME280;6516;35.028;32.372;2022-09-29T04:06:37;99876.22;;;21.07;92.99
12897;BME280;6516;35.028;32.372;2022-09-29T04:09:05;99878.13;;;21.05;93.51
12897;BME280;6516;35.028;32.372;2022-09-29T04:11:33;99875.75;;;21.00;93.64
12897;BME280;6516;35.028;32.372;2022-09-29T04:14:02;99881.00;;;21.02;93.88
12897;BME280;6516;35.028;32.372;2022-09-29T04:16:30;99886.94;;;21.07;94.64
12897;BME280;6516;35.028;32.372;2022-09-29T04:18:58;99880.00;;;21.17;94.94
12897;BME280;6516;35.028;32.372;2022-09-29T04:21:26;99881.91;;;21.29;95.82
12897;BME280;6516;35.028;32.372;2022-09-29T04:23:54;99868.66;;;21.40;95.50
12897;BME280;6516;35.028;32.372;2022-09-29T04:26:21;99874.72;;;21.56;95.41
12897;BME280;6516;35.028;32.372;2022-09-29T04:28:49;99872.00;;;21.70;95.28
12897;BME280;6516;35.028;32.372;2022-09-29T04:31:18;99873.53;;;21.86;94.67
12897;BME280;6516;35.028;32.372;2022-09-29T04:33:46;99869.50;;;22.06;94.70
12897;BME280;6516;35.028;32.372;2022-09-29T04:36:14;99870.13;;;22.34;94.04
12897;BME280;6516;35.028;32.372;2022-09-29T04:38:42;99877.66;;;22.67;93.88
12897;BME280;6516;35.028;32.372;2022-09-29T04:41:10;99870.41;;;22.92;92.58
12897;BME280;6516;35.028;32.372;2022-09-29T04:43:37;99867.97;;;23.13;91.54
12897;BME280;6516;35.028;32.372;2022-09-29T04:46:06;99864.09;;;23.29;90.26
12897;BME280;6516;35.028;32.372;2022-09-29T04:48:36;99868.19;;;23.46;89.07
12897;BME280;6516;35.028;32.372;2022-09-29T04:51:04;99863.28;;;23.63;88.45
12897;BME280;6516;35.028;32.372;2022-09-29T04:53:35;99862.63;;;23.83;88.33
12897;BME280;6516;35.028;32.372;2022-09-29T04:56:07;99869.31;;;24.01;86.62
12897;BME280;6516;35.028;32.372;2022-09-29T04:58:35;99870.34;;;24.22;85.95
12897;BME280;6516;35.028;32.372;2022-09-29T05:01:09;99875.28;;;24.39;83.98
12897;BME280;6516;35.028;32.372;2022-09-29T05:03:40;99865.50;;;24.60;84.44
12897;BME280;6516;35.028;32.372;2022-09-29T05:06:09;99866.63;;;24.80;83.63
12897;BME280;6516;35.028;32.372;2022-09-29T05:08:38;99867.13;;;24.96;82.38
12897;BME280;6516;35.028;32.372;2022-09-29T05:11:07;99868.03;;;25.17;81.38
12897;BME280;6516;35.028;32.372;2022-09-29T05:13:37;99866.44;;;25.36;79.37
12897;BME280;6516;35.028;32.372;2022-09-29T05:16:06;99863.06;;;25.55;76.23
12897;BME280;6516;35.028;32.372;2022-09-29T05:18:34;99870.94;;;25.78;75.90
12897;BME280;6516;35.028;32.372;2022-09-29T05:21:05;99874.53;;;25.99;70.48
12897;BME280;6516;35.028;32.372;2022-09-29T05:23:35;99869.59;;;26.25;70.26
12897;BME280;6516;35.028;32.372;2022-09-29T05:26:05;99874.19;;;26.54;69.39
12897;BME280;6516;35.028;32.372;2022-09-29T05:28:35;99865.13;;;26.95;67.19
12897;BME280;6516;35.028;32.372;2022-09-29T05:31:05;99866.97;;;27.25;65.68
12897;BME280;6516;35.028;32.372;2022-09-29T05:33:35;99868.59;;;27.46;65.37
12897;BME280;6516;35.028;32.372;2022-09-29T05:36:06;99874.56;;;27.69;65.11
12897;BME280;6516;35.028;32.372;2022-09-29T05:38:35;99868.91;;;27.91;63.44
12897;BME280;6516;35.028;32.372;2022-09-29T05:41:05;99874.03;;;28.13;63.61
12897;BME280;6516;35.028;32.372;2022-09-29T05:43:37;99870.28;;;28.33;62.10
12897;BME280;6516;35.028;32.372;2022-09-29T05:46:07;99868.97;;;28.56;62.13
12897;BME280;6516;35.028;32.372;2022-09-29T05:48:36;99871.16;;;28.79;61.69
12897;BME280;6516;35.028;32.372;2022-09-29T05:51:08;99872.66;;;29.01;60.67
12897;BME280;6516;35.028;32.372;2022-09-29T05:53:37;99876.78;;;29.32;59.79
12897;BME280;6516;35.028;32.372;2022-09-29T05:56:06;99876.72;;;29.41;58.48
12897;BME280;6516;35.028;32.372;2022-09-29T05:58:35;99884.00;;;29.68;58.74
12897;BME280;6516;35.028;32.372;2022-09-29T06:01:07;99885.88;;;29.85;58.07
12897;BME280;6516;35.028;32.372;2022-09-29T06:03:36;99885.16;;;30.00;57.65
12897;BME280;6516;35.028;32.372;2022-09-29T06:06:08;99890.91;;;30.15;56.34
12897;BME280;6516;35.028;32.372;2022-09-29T06:08:37;99890.91;;;30.32;55.63
12897;BME280;6516;35.028;32.372;2022-09-29T06:11:06;99890.00;;;30.49;56.04
12897;BME280;6516;35.028;32.372;2022-09-29T06:13:37;99898.38;;;30.56;55.45
12897;BME280;6516;35.028;32.372;2022-09-29T06:16:05;99899.94;;;30.58;54.21
12897;BME280;6516;35.028;32.372;2022-09-29T06:18:34;99900.44;;;30.62;53.79
12897;BME280;6516;35.028;32.372;2022-09-29T06:21:03;99906.81;;;30.70;53.98
12897;BME280;6516;35.028;32.372;2022-09-29T06:23:34;99915.53;;;30.82;54.24
12897;BME280;6516;35.028;32.372;2022-09-29T06:26:05;99907.69;;;30.71;55.36
12897;BME280;6516;35.028;32.372;2022-09-29T06:28:35;99905.78;;;30.71;54.67
12897;BME280;6516;35.028;32.372;2022-09-29T06:31:05;99901.75;;;30.75;55.09
12897;BME280;6516;35.028;32.372;2022-09-29T06:33:34;99899.13;;;30.66;54.01
12897;BME280;6516;35.028;32.372;2022-09-29T06:36:06;99904.66;;;30.82;54.42
12897;BME280;6516;35.028;32.372;2022-09-29T06:38:55;99902.88;;;30.90;53.66
12897;BME280;6516;35.028;32.372;2022-09-29T06:41:23;99903.78;;;31.07;53.20
12897;BME280;6516;35.028;32.372;2022-09-29T06:43:53;99900.63;;;31.19;53.69
12897;BME280;6516;35.028;32.372;2022-09-29T06:46:21;99906.66;;;31.31;52.54
12897;BME280;6516;35.028;32.372;2022-09-29T06:48:51;99906.88;;;31.45;50.50
12897;BME280;6516;35.028;32.372;2022-09-29T06:51:19;99909.63;;;31.61;51.93
12897;BME280;6516;35.028;32.372;2022-09-29T06:53:48;99901.72;;;31.76;50.14
12897;BME280;6516;35.028;32.372;2022-09-29T06:56:18;99902.75;;;31.91;50.25
12897;BME280;6516;35.028;32.372;2022-09-29T06:58:46;99897.31;;;31.99;49.96
12897;BME280;6516;35.028;32.372;2022-09-29T07:01:14;99897.31;;;32.15;49.12
12897;BME280;6516;35.028;32.372;2022-09-29T07:03:42;99897.66;;;32.04;49.15
12897;BME280;6516;35.028;32.372;2022-09-29T07:06:10;99897.13;;;32.16;48.02
12897;BME280;6516;35.028;32.372;2022-09-29T07:08:38;99901.09;;;32.38;48.25
12897;BME280;6516;35.028;32.372;2022-09-29T07:11:06;99897.50;;;32.37;47.76
12897;BME280;6516;35.028;32.372;2022-09-29T07:13:36;99895.59;;;32.62;47.62
12897;BME280;6516;35.028;32.372;2022-09-29T07:16:05;99895.53;;;33.02;46.32
12897;BME280;6516;35.028;32.372;2022-09-29T07:18:34;99892.22;;;33.30;45.39
12897;BME280;6516;35.028;32.372;2022-09-29T07:21:03;99886.75;;;33.61;43.13
12897;BME280;6516;35.028;32.372;2022-09-29T07:23:32;99887.53;;;33.69;43.42
12897;BME280;6516;35.028;32.372;2022-09-29T07:26:00;99891.00;;;34.17;46.34
12897;BME280;6516;35.028;32.372;2022-09-29T07:28:28;99891.72;;;34.11;46.81
12897;BME280;6516;35.028;32.372;2022-09-29T07:31:01;99892.22;;;34.14;46.31
12897;BME280;6516;35.028;32.372;2022-09-29T07:33:31;99886.47;;;34.24;45.69
12897;BME280;6516;35.028;32.372;2022-09-29T07:35:59;99891.72;;;34.11;45.55
12897;BME280;6516;35.028;32.372;2022-09-29T07:38:27;99891.94;;;34.24;45.31
12897;BME280;6516;35.028;32.372;2022-09-29T07:40:58;99894.69;;;34.24;46.27
12897;BME280;6516;35.028;32.372;2022-09-29T07:43:28;99898.16;;;34.40;45.80
12897;BME280;6516;35.028;32.372;2022-09-29T07:45:56;99891.00;;;34.39;46.19
12897;BME280;6516;35.028;32.372;2022-09-29T07:48:27;99892.84;;;34.61;46.24
12897;BME280;6516;35.028;32.372;2022-09-29T07:51:00;99898.59;;;34.66;45.84
12897;BME280;6516;35.028;32.372;2022-09-29T07:53:28;99903.38;;;34.87;44.79
12897;BME280;6516;35.028;32.372;2022-09-29T07:56:01;99903.81;;;34.76;45.01
12897;BME280;6516;35.028;32.372;2022-09-29T07:58:30;99903.75;;;34.24;47.50
12897;BME280;6516;35.028;32.372;2022-09-29T08:00:58;99906.75;;;34.37;47.70
12897;BME280;6516;35.028;32.372;2022-09-29T08:03:28;99904.97;;;34.44;47.94
12897;BME280;6516;35.028;32.372;2022-09-29T08:05:56;99901.75;;;34.41;47.35
12897;BME280;6516;35.028;32.372;2022-09-29T08:08:24;99898.19;;;34.55;47.27
12897;BME280;6516;35.028;32.372;2022-09-29T08:10:59;99904.78;;;34.83;46.05
12897;BME280;6516;35.028;32.372;2022-09-29T08:13:28;99911.78;;;35.00;45.36
12897;BME280;6516;35.028;32.372;2022-09-29T08:15:57;99905.25;;;35.01;45.09
12897;BME280;6516;35.028;32.372;2022-09-29T08:18:27;99916.69;;;35.19;44.50
12897;BME280;6516;35.028;32.372;2022-09-29T08:20:56;99912.66;;;35.29;44.55
12897;BME280;6516;35.028;32.372;2022-09-29T08:23:24;99913.47;;;35.44;43.34
12897;BME280;6516;35.028;32.372;2022-09-29T08:25:58;99903.34;;;35.59;43.00
12897;BME280;6516;35.028;32.372;2022-09-29T08:28:28;99913.06;;;35.62;43.11
12897;BME280;6516;35.028;32.372;2022-09-29T08:30:56;99909.28;;;35.63;42.97
12897;BME280;6516;35.028;32.372;2022-09-29T08:33:24;99919.09;;;35.72;41.84
12897;BME280;6516;35.028;32.372;2022-09-29T08:35:57;99914.34;;;35.66;42.38
12897;BME280;6516;35.028;32.372;2022-09-29T08:38:26;99910.19;;;35.70;41.15
12897;BME280;6516;35.028;32.372;2022-09-29T08:40:56;99908.69;;;35.82;41.12
12897;BME280;6516;35.028;32.372;2022-09-29T08:43:27;99915.16;;;35.95;40.23
12897;BME280;6516;35.028;32.372;2022-09-29T08:46:00;99911.88;;;36.21;40.17
12897;BME280;6516;35.028;32.372;2022-09-29T08:48:32;99910.22;;;36.26;39.11
12897;BME280;6516;35.028;32.372;2022-09-29T08:51:06;99918.72;;;36.31;37.77
12897;BME280;6516;35.028;32.372;2022-09-29T08:53:43;99913.22;;;36.10;37.84
12897;BME280;6516;35.028;32.372;2022-09-29T08:56:14;99908.97;;;36.29;37.47
12897;BME280;6516;35.028;32.372;2022-09-29T08:58:44;99913.09;;;36.39;38.07
12897;BME280;6516;35.028;32.372;2022-09-29T09:01:21;99907.03;;;36.44;37.56
12897;BME280;6516;35.028;32.372;2022-09-29T09:04:27;99916.84;;;36.80;37.09
12897;BME280;6516;35.028;32.372;2022-09-29T09:07:10;99913.31;;;36.86;36.62
12897;BME280;6516;35.028;32.372;2022-09-29T09:09:58;99912.41;;;36.79;35.88
12897;BME280;6516;35.028;32.372;2022-09-29T09:12:50;99920.25;;;36.61;36.84
12897;BME280;6516;35.028;32.372;2022-09-29T09:15:36;99931.59;;;36.31;37.18
12897;BME280;6516;35.028;32.372;2022-09-29T09:18:40;99934.28;;;36.45;37.83
12897;BME280;6516;35.028;32.372;2022-09-29T09:21:27;99925.75;;;36.61;36.76
12897;BME280;6516;35.028;32.372;2022-09-29T09:24:10;99921.81;;;36.49;37.61
12897;BME280;6516;35.028;32.372;2022-09-29T09:26:44;99914.66;;;36.69;37.93
12897;BME280;6516;35.028;32.372;2022-09-29T09:29:17;99928.09;;;36.64;38.09
12897;BME280;6516;35.028;32.372;2022-09-29T09:31:54;99915.38;;;36.57;37.40
12897;BME280;6516;35.028;32.372;2022-09-29T09:34:27;99931.78;;;36.29;39.29
12897;BME280;6516;35.028;32.372;2022-09-29T09:37:00;99926.13;;;36.58;37.79
12897;BME280;6516;35.028;32.372;2022-09-29T09:39:36;99933.47;;;36.30;37.31
12897;BME280;6516;35.028;32.372;2022-09-29T09:42:14;99936.28;;;36.37;40.34
12897;BME280;6516;35.028;32.372;2022-09-29T09:44:47;99934.09;;;36.11;39.19
12897;BME280;6516;35.028;32.372;2022-09-29T09:47:24;99924.03;;;35.97;41.73
12897;BME280;6516;35.028;32.372;2022-09-29T09:49:56;99927.66;;;35.98;40.40
12897;BME280;6516;35.028;32.372;2022-09-29T09:52:30;99926.81;;;35.83;41.36
12897;BME280;6516;35.028;32.372;2022-09-29T09:55:04;99928.94;;;35.52;40.19
12897;BME280;6516;35.028;32.372;2022-09-29T09:57:54;99918.56;;;35.18;40.47
12897;BME280;6516;35.028;32.372;2022-09-29T10:00:30;99921.00;;;35.13;42.56
12897;BME280;6516;35.028;32.372;2022-09-29T10:03:03;99917.91;;;34.87;43.24
12897;BME280;6516;35.028;32.372;2022-09-29T10:05:34;99918.47;;;34.83;41.53
12897;BME280;6516;35.028;32.372;2022-09-29T10:08:05;99909.97;;;35.07;42.21
12897;BME280;6516;35.028;32.372;2022-09-29T10:10:40;99910.19;;;35.05;42.04
12897;BME280;6516;35.028;32.372;2022-09-29T10:13:12;99910.81;;;34.93;40.83
12897;BME280;6516;35.028;32.372;2022-09-29T10:15:44;99910.06;;;35.13;41.33
12897;BME280;6516;35.028;32.372;2022-09-29T10:18:18;99907.53;;;35.26;41.32
12897;BME280;6516;35.028;32.372;2022-09-29T10:20:48;99917.44;;;35.13;38.07
12897;BME280;6516;35.028;32.372;2022-09-29T10:23:24;99922.47;;;35.09;37.56
12897;BME280;6516;35.028;32.372;2022-09-29T10:25:59;99915.56;;;35.28;38.23
12897;BME280;6516;35.028;32.372;2022-09-29T10:28:37;99916.97;;;35.09;40.91
12897;BME280;6516;35.028;32.372;2022-09-29T10:31:31;99908.19;;;35.14;38.19
12897;BME280;6516;35.028;32.372;2022-09-29T10:34:02;99920.59;;;35.39;39.39
12897;BME280;6516;35.028;32.372;2022-09-29T10:36:49;99917.59;;;35.69;39.30
12897;BME280;6516;35.028;32.372;2022-09-29T10:39:48;99913.97;;;35.83;37.92
12897;BME280;6516;35.028;32.372;2022-09-29T10:42:22;99913.06;;;35.97;38.35
12897;BME280;6516;35.028;32.372;2022-09-29T10:44:53;99915.16;;;35.95;37.86
12897;BME280;6516;35.028;32.372;2022-09-29T10:47:27;99921.03;;;35.92;37.80
12897;BME280;6516;35.028;32.372;2022-09-29T10:50:10;99918.22;;;35.71;38.48
12897;BME280;6516;35.028;32.372;2022-09-29T10:52:42;99922.59;;;35.80;39.09
12897;BME280;6516;35.028;32.372;2022-09-29T10:55:18;99929.75;;;35.81;38.04
12897;BME280;6516;35.028;32.372;2022-09-29T10:57:49;99931.28;;;35.69;37.49
12897;BME280;6516;35.028;32.372;2022-09-29T11:00:26;99925.41;;;35.72;38.05
12897;BME280;6516;35.028;32.372;2022-09-29T11:03:01;99931.50;;;35.53;38.74
12897;BME280;6516;35.028;32.372;2022-09-29T11:05:33;99943.31;;;35.68;39.15
12897;BME280;6516;35.028;32.372;2022-09-29T11:08:02;99931.84;;;35.65;38.98
12897;BME280;6516;35.028;32.372;2022-09-29T11:10:32;99939.09;;;35.87;39.23
12897;BME280;6516;35.028;32.372;2022-09-29T11:13:31;99940.94;;;36.01;39.10
12897;BME280;6516;35.028;32.372;2022-09-29T11:16:12;99939.84;;;36.16;38.93
12897;BME280;6516;35.028;32.372;2022-09-29T11:18:42;99945.16;;;36.18;37.00
12897;BME280;6516;35.028;32.372;2022-09-29T11:21:54;99944.56;;;36.01;38.44
12897;BME280;6516;35.028;32.372;2022-09-29T11:24:50;99943.16;;;35.91;38.92
12897;BME280;6516;35.028;32.372;2022-09-29T11:27:50;99951.31;;;35.84;39.56
12897;BME280;6516;35.028;32.372;2022-09-29T11:30:28;99943.31;;;35.54;40.38
12897;BME280;6516;35.028;32.372;2022-09-29T11:33:12;99934.19;;;35.32;38.85
12897;BME280;6516;35.028;32.372;2022-09-29T11:35:52;99932.28;;;35.33;39.55
12897;BME280;6516;35.028;32.372;2022-09-29T11:38:34;99932.06;;;35.20;41.07
12897;BME280;6516;35.028;32.372;2022-09-29T11:41:21;99937.38;;;35.36;40.06
12897;BME280;6516;35.028;32.372;2022-09-29T11:44:08;99940.22;;;35.42;39.93
12897;BME280;6516;35.028;32.372;2022-09-29T11:46:57;99952.31;;;35.33;40.30
12897;BME280;6516;35.028;32.372;2022-09-29T11:49:47;99948.25;;;35.29;39.05
12897;BME280;6516;35.028;32.372;2022-09-29T11:52:41;99953.97;;;35.20;38.93
12897;BME280;6516;35.028;32.372;2022-09-29T11:55:37;99949.91;;;35.16;39.72
12897;BME280;6516;35.028;32.372;2022-09-29T11:58:21;99948.09;;;35.08;39.06
12897;BME280;6516;35.028;32.372;2022-09-29T12:01:08;99948.88;;;35.02;40.52
12897;BME280;6516;35.028;32.372;2022-09-29T12:03:49;99951.91;;;35.07;40.32
12897;BME280;6516;35.028;32.372;2022-09-29T12:06:34;99946.16;;;35.17;40.87
12897;BME280;6516;35.028;32.372;2022-09-29T12:09:36;99953.31;;;35.18;38.82
12897;BME280;6516;35.028;32.372;2022-09-29T12:12:26;99955.47;;;34.93;39.28
12897;BME280;6516;35.028;32.372;2022-09-29T12:15:17;99955.59;;;35.14;40.01
12897;BME280;6516;35.028;32.372;2022-09-29T12:17:53;99955.50;;;35.08;40.48
12897;BME280;6516;35.028;32.372;2022-09-29T12:20:29;99960.78;;;35.09;40.53
12897;BME280;6516;35.028;32.372;2022-09-29T12:23:02;99954.09;;;35.12;41.02
12897;BME280;6516;35.028;32.372;2022-09-29T12:25:36;99955.78;;;35.13;42.09
12897;BME280;6516;35.028;32.372;2022-09-29T12:28:13;99956.22;;;34.87;47.89
12897;BME280;6516;35.028;32.372;2022-09-29T12:30:45;99949.00;;;34.35;50.08
12897;BME280;6516;35.028;32.372;2022-09-29T12:33:21;99947.59;;;34.08;50.66
12897;BME280;6516;35.028;32.372;2022-09-29T12:36:07;99945.25;;;34.05;49.25
12897;BME280;6516;35.028;32.372;2022-09-29T12:39:00;99954.34;;;33.98;51.28
12897;BME280;6516;35.028;32.372;2022-09-29T12:41:34;99952.81;;;33.95;50.77
12897;BME280;6516;35.028;32.372;2022-09-29T12:44:11;99959.09;;;34.04;50.94
12897;BME280;6516;35.028;32.372;2022-09-29T12:46:46;99950.03;;;34.03;50.79
12897;BME280;6516;35.028;32.372;2022-09-29T12:49:21;99957.38;;;33.72;52.23
12897;BME280;6516;35.028;32.372;2022-09-29T12:51:52;99954.69;;;33.64;50.88
12897;BME280;6516;35.028;32.372;2022-09-29T12:54:22;99955.50;;;33.34;51.83
12897;BME280;6516;35.028;32.372;2022-09-29T12:56:56;99970.84;;;33.43;51.26
12897;BME280;6516;35.028;32.372;2022-09-29T12:59:34;99969.69;;;33.21;51.35
12897;BME280;6516;35.028;32.372;2022-09-29T13:02:24;99971.56;;;33.21;51.07
12897;BME280;6516;35.028;32.372;2022-09-29T13:05:39;99963.94;;;32.92;51.63
12897;BME280;6516;35.028;32.372;2022-09-29T13:08:50;99970.44;;;32.83;51.28
12897;BME280;6516;35.028;32.372;2022-09-29T13:11:54;99968.25;;;32.87;51.76
12897;BME280;6516;35.028;32.372;2022-09-29T13:17:55;99959.03;;;32.88;50.86
12897;BME280;6516;35.028;32.372;2022-09-29T13:20:41;99961.88;;;32.78;50.59
12897;BME280;6516;35.028;32.372;2022-09-29T13:23:47;99956.78;;;32.75;51.86
12897;BME280;6516;35.028;32.372;2022-09-29T13:27:06;99960.53;;;32.66;50.75
12897;BME280;6516;35.028;32.372;2022-09-29T13:29:45;99956.47;;;32.62;50.51
12897;BME280;6516;35.028;32.372;2022-09-29T13:32:15;99960.03;;;32.55;52.42
12897;BME280;6516;35.028;32.372;2022-09-29T13:34:47;99961.56;;;32.33;52.39
12897;BME280;6516;35.028;32.372;2022-09-29T13:37:21;99962.72;;;32.15;52.65
12897;BME280;6516;35.028;32.372;2022-09-29T13:39:55;99960.34;;;32.20;52.13
12897;BME280;6516;35.028;32.372;2022-09-29T13:42:27;99949.28;;;32.13;51.28
12897;BME280;6516;35.028;32.372;2022-09-29T13:48:34;99951.41;;;31.78;53.52